sensor_id;sensor_type;location;lat;lon;timestamp;temperature;humidity
4820;DHT22;2424;49.696;6.630;2023-12-28T00:03:26;8.40;99.90
4820;DHT22;2424;49.696;6.630;2023-12-28T00:08:48;8.30;99.90
4820;DHT22;2424;49.696;6.630;2023-12-28T00:14:11;8.20;99.90
4820;DHT22;2424;49.696;6.630;2023-12-28T00:19:33;8.10;99.90
4820;DHT22;2424;49.696;6.630;2023-12-28T00:24:55;8.20;99.90
4820;DHT22;2424;49.696;6.630;2023-12-28T00:30:19;8.20;99.90
4820;DHT22;2424;49.696;6.630;2023-12-28T00:35:41;8.10;99.90
4820;DHT22;2424;49.696;6.630;2023-12-28T00:41:03;8.00;99.90
4820;DHT22;2424;49.696;6.630;2023-12-28T00:46:26;8.00;99.90
4820;DHT22;2424;49.696;6.630;2023-12-28T00:51:49;7.90;99.90
4820;DHT22;2424;49.696;6.630;2023-12-28T00:57:11;7.80;99.90
4820;DHT22;2424;49.696;6.630;2023-12-28T01:02:34;7.70;99.90
4820;DHT22;2424;49.696;6.630;2023-12-28T01:07:56;7.70;99.90
4820;DHT22;2424;49.696;6.630;2023-12-28T01:13:18;7.60;99.90
4820;DHT22;2424;49.696;6.630;2023-12-28T01:18:41;7.50;99.90
4820;DHT22;2424;49.696;6.630;2023-12-28T01:24:04;7.50;99.90
4820;DHT22;2424;49.696;6.630;2023-12-28T01:29:26;7.30;99.90
4820;DHT22;2424;49.696;6.630;2023-12-28T01:34:49;7.20;99.90
4820;DHT22;2424;49.696;6.630;2023-12-28T01:40:11;7.10;99.90
4820;DHT22;2424;49.696;6.630;2023-12-28T01:45:33;7.10;99.90
4820;DHT22;2424;49.696;6.630;2023-12-28T01:50:57;7.00;99.90
4820;DHT22;2424;49.696;6.630;2023-12-28T01:56:20;7.00;99.90
4820;DHT22;2424;49.696;6.630;2023-12-28T02:01:42;7.00;99.90
4820;DHT22;2424;49.696;6.630;2023-12-28T02:07:07;6.90;99.90
4820;DHT22;2424;49.696;6.630;2023-12-28T02:12:29;6.90;99.90
4820;DHT22;2424;49.696;6.630;2023-12-28T02:17:55;6.90;99.90
4820;DHT22;2424;49.696;6.630;2023-12-28T02:23:21;6.90;99.90
4820;DHT22;2424;49.696;6.630;2023-12-28T02:28:45;7.00;99.90
4820;DHT22;2424;49.696;6.630;2023-12-28T02:34:14;7.00;99.90
4820;DHT22;2424;49.696;6.630;2023-12-28T02:39:38;7.10;99.90
4820;DHT22;2424;49.696;6.630;2023-12-28T02:45:02;7.10;99.90
4820;DHT22;2424;49.696;6.630;2023-12-28T02:50:24;7.20;99.90
4820;DHT22;2424;49.696;6.630;2023-12-28T02:55:46;7.20;99.90
4820;DHT22;2424;49.696;6.630;2023-12-28T03:01:10;7.20;99.90
4820;DHT22;2424;49.696;6.630;2023-12-28T03:06:32;7.20;99.90
4820;DHT22;2424;49.696;6.630;2023-12-28T03:11:54;7.20;99.90
4820;DHT22;2424;49.696;6.630;2023-12-28T03:17:17;7.20;99.90
4820;DHT22;2424;49.696;6.630;2023-12-28T03:22:39;7.20;99.90
4820;DHT22;2424;49.696;6.630;2023-12-28T03:28:01;7.20;99.90
4820;DHT22;2424;49.696;6.630;2023-12-28T03:33:24;7.20;99.90
4820;DHT22;2424;49.696;6.630;2023-12-28T03:38:47;7.30;99.90
4820;DHT22;2424;49.696;6.630;2023-12-28T03:44:10;7.30;99.90
4820;DHT22;2424;49.696;6.630;2023-12-28T03:49:33;7.30;99.90
4820;DHT22;2424;49.696;6.630;2023-12-28T03:54:55;7.40;99.90
4820;DHT22;2424;49.696;6.630;2023-12-28T04:00:17;7.40;99.90
4820;DHT22;2424;49.696;6.630;2023-12-28T04:05:42;7.50;99.90
4820;DHT22;2424;49.696;6.630;2023-12-28T04:11:04;7.60;99.90
4820;DHT22;2424;49.696;6.630;2023-12-28T04:16:26;7.60;99.90
4820;DHT22;2424;49.696;6.630;2023-12-28T04:21:49;7.60;99.90
4820;DHT22;2424;49.696;6.630;2023-12-28T04:27:11;7.70;99.90
4820;DHT22;2424;49.696;6.630;2023-12-28T04:32:34;7.70;99.90
4820;DHT22;2424;49.696;6.630;2023-12-28T04:37:57;7.70;99.90
4820;DHT22;2424;49.696;6.630;2023-12-28T04:43:19;7.80;99.90
4820;DHT22;2424;49.696;6.630;2023-12-28T04:48:41;7.80;99.90
4820;DHT22;2424;49.696;6.630;2023-12-28T04:54:04;8.00;99.90
4820;DHT22;2424;49.696;6.630;2023-12-28T04:59:26;8.00;99.90
4820;DHT22;2424;49.696;6.630;2023-12-28T05:04:48;8.00;99.90
4820;DHT22;2424;49.696;6.630;2023-12-28T05:10:12;8.10;99.90
4820;DHT22;2424;49.696;6.630;2023-12-28T05:15:34;8.10;99.90
4820;DHT22;2424;49.696;6.630;2023-12-28T05:20:56;8.10;99.90
4820;DHT22;2424;49.696;6.630;2023-12-28T05:26:19;8.10;99.90
4820;DHT22;2424;49.696;6.630;2023-12-28T05:31:41;8.20;99.90
4820;DHT22;2424;49.696;6.630;2023-12-28T05:37:03;8.20;99.90
4820;DHT22;2424;49.696;6.630;2023-12-28T05:42:27;8.30;99.90
4820;DHT22;2424;49.696;6.630;2023-12-28T05:47:49;8.30;99.90
4820;DHT22;2424;49.696;6.630;2023-12-28T05:53:11;8.30;99.90
4820;DHT22;2424;49.696;6.630;2023-12-28T05:58:36;8.40;99.90
4820;DHT22;2424;49.696;6.630;2023-12-28T06:03:59;8.40;99.90
4820;DHT22;2424;49.696;6.630;2023-12-28T06:09:21;8.40;99.90
4820;DHT22;2424;49.696;6.630;2023-12-28T06:14:44;8.50;99.90
4820;DHT22;2424;49.696;6.630;2023-12-28T06:20:07;8.50;99.90
4820;DHT22;2424;49.696;6.630;2023-12-28T06:25:30;8.50;99.90
4820;DHT22;2424;49.696;6.630;2023-12-28T06:30:53;8.50;99.90
4820;DHT22;2424;49.696;6.630;2023-12-28T06:36:17;8.60;99.90
4820;DHT22;2424;49.696;6.630;2023-12-28T06:41:39;8.60;99.90
4820;DHT22;2424;49.696;6.630;2023-12-28T06:47:03;8.60;99.90
4820;DHT22;2424;49.696;6.630;2023-12-28T06:52:25;8.50;99.90
4820;DHT22;2424;49.696;6.630;2023-12-28T06:57:47;8.60;99.90
4820;DHT22;2424;49.696;6.630;2023-12-28T07:03:10;8.60;99.90
4820;DHT22;2424;49.696;6.630;2023-12-28T07:08:32;8.60;99.90
4820;DHT22;2424;49.696;6.630;2023-12-28T07:13:54;8.60;99.90
4820;DHT22;2424;49.696;6.630;2023-12-28T07:19:18;8.70;99.90
4820;DHT22;2424;49.696;6.630;2023-12-28T07:24:39;8.70;99.90
4820;DHT22;2424;49.696;6.630;2023-12-28T07:30:02;8.60;99.90
4820;DHT22;2424;49.696;6.630;2023-12-28T07:35:25;8.60;99.90
4820;DHT22;2424;49.696;6.630;2023-12-28T07:40:48;8.70;99.90
4820;DHT22;2424;49.696;6.630;2023-12-28T07:46:10;8.70;99.90
4820;DHT22;2424;49.696;6.630;2023-12-28T07:51:33;8.70;99.90
4820;DHT22;2424;49.696;6.630;2023-12-28T07:56:55;8.70;99.90
4820;DHT22;2424;49.696;6.630;2023-12-28T08:02:17;8.70;99.90
4820;DHT22;2424;49.696;6.630;2023-12-28T08:07:41;8.70;99.90
4820;DHT22;2424;49.696;6.630;2023-12-28T08:13:03;8.70;99.90
4820;DHT22;2424;49.696;6.630;2023-12-28T08:18:25;8.70;99.90
4820;DHT22;2424;49.696;6.630;2023-12-28T08:23:48;8.70;99.90
4820;DHT22;2424;49.696;6.630;2023-12-28T08:29:10;8.80;99.90
4820;DHT22;2424;49.696;6.630;2023-12-28T08:34:32;8.80;99.90
4820;DHT22;2424;49.696;6.630;2023-12-28T08:39:56;8.90;99.90
4820;DHT22;2424;49.696;6.630;2023-12-28T08:45:18;8.90;99.90
4820;DHT22;2424;49.696;6.630;2023-12-28T08:50:40;8.90;99.90
4820;DHT22;2424;49.696;6.630;2023-12-28T08:56:13;9.00;99.90
4820;DHT22;2424;49.696;6.630;2023-12-28T09:01:35;9.00;99.90
4820;DHT22;2424;49.696;6.630;2023-12-28T09:06:57;9.10;99.90
4820;DHT22;2424;49.696;6.630;2023-12-28T09:12:21;9.00;99.90
4820;DHT22;2424;49.696;6.630;2023-12-28T09:17:43;9.10;99.90
4820;DHT22;2424;49.696;6.630;2023-12-28T09:23:05;9.00;99.90
4820;DHT22;2424;49.696;6.630;2023-12-28T09:28:29;9.00;99.90
4820;DHT22;2424;49.696;6.630;2023-12-28T09:33:51;9.00;99.90
4820;DHT22;2424;49.696;6.630;2023-12-28T09:39:13;9.10;99.90
4820;DHT22;2424;49.696;6.630;2023-12-28T09:44:38;9.10;99.90
4820;DHT22;2424;49.696;6.630;2023-12-28T09:50:02;9.20;99.90
4820;DHT22;2424;49.696;6.630;2023-12-28T09:55:24;9.20;99.90
4820;DHT22;2424;49.696;6.630;2023-12-28T10:00:49;9.20;99.90
4820;DHT22;2424;49.696;6.630;2023-12-28T10:06:11;9.20;99.90
4820;DHT22;2424;49.696;6.630;2023-12-28T10:11:36;9.20;99.90
4820;DHT22;2424;49.696;6.630;2023-12-28T10:17:00;9.20;99.90
4820;DHT22;2424;49.696;6.630;2023-12-28T10:22:23;9.30;99.90
4820;DHT22;2424;49.696;6.630;2023-12-28T10:27:45;9.40;99.90
4820;DHT22;2424;49.696;6.630;2023-12-28T10:33:09;9.40;99.90
4820;DHT22;2424;49.696;6.630;2023-12-28T10:38:34;9.50;99.90
4820;DHT22;2424;49.696;6.630;2023-12-28T10:44:02;9.50;99.90
4820;DHT22;2424;49.696;6.630;2023-12-28T10:49:26;9.60;99.90
4820;DHT22;2424;49.696;6.630;2023-12-28T10:54:56;9.70;99.90
4820;DHT22;2424;49.696;6.630;2023-12-28T11:00:22;9.70;99.90
4820;DHT22;2424;49.696;6.630;2023-12-28T11:05:47;9.60;99.90
4820;DHT22;2424;49.696;6.630;2023-12-28T11:11:09;9.60;99.90
4820;DHT22;2424;49.696;6.630;2023-12-28T11:16:34;9.60;99.90
4820;DHT22;2424;49.696;6.630;2023-12-28T11:21:58;9.80;99.90
4820;DHT22;2424;49.696;6.630;2023-12-28T11:27:21;9.80;99.90
4820;DHT22;2424;49.696;6.630;2023-12-28T11:32:43;9.70;99.90
4820;DHT22;2424;49.696;6.630;2023-12-28T11:38:09;9.70;99.90
4820;DHT22;2424;49.696;6.630;2023-12-28T11:43:35;9.70;99.90
4820;DHT22;2424;49.696;6.630;2023-12-28T11:49:03;9.60;99.90
4820;DHT22;2424;49.696;6.630;2023-12-28T11:54:27;9.60;99.90
4820;DHT22;2424;49.696;6.630;2023-12-28T11:59:54;9.50;99.90
4820;DHT22;2424;49.696;6.630;2023-12-28T12:05:16;9.60;99.90
4820;DHT22;2424;49.696;6.630;2023-12-28T12:10:40;9.60;99.90
4820;DHT22;2424;49.696;6.630;2023-12-28T12:16:03;9.60;99.90
4820;DHT22;2424;49.696;6.630;2023-12-28T12:21:27;9.70;99.90
4820;DHT22;2424;49.696;6.630;2023-12-28T12:26:51;9.70;99.90
4820;DHT22;2424;49.696;6.630;2023-12-28T12:32:14;9.70;99.90
4820;DHT22;2424;49.696;6.630;2023-12-28T12:37:36;10.00;99.90
4820;DHT22;2424;49.696;6.630;2023-12-28T12:43:00;10.30;99.90
4820;DHT22;2424;49.696;6.630;2023-12-28T12:48:22;10.20;99.90
4820;DHT22;2424;49.696;6.630;2023-12-28T12:53:45;10.20;99.90
4820;DHT22;2424;49.696;6.630;2023-12-28T12:59:08;10.10;99.90
4820;DHT22;2424;49.696;6.630;2023-12-28T13:04:38;10.10;99.90
4820;DHT22;2424;49.696;6.630;2023-12-28T13:10:00;10.10;99.90
4820;DHT22;2424;49.696;6.630;2023-12-28T13:15:24;10.20;99.90
4820;DHT22;2424;49.696;6.630;2023-12-28T13:20:46;10.10;99.90
4820;DHT22;2424;49.696;6.630;2023-12-28T13:26:08;9.90;99.90
4820;DHT22;2424;49.696;6.630;2023-12-28T13:31:31;10.40;99.90
4820;DHT22;2424;49.696;6.630;2023-12-28T13:36:53;10.10;99.90
4820;DHT22;2424;49.696;6.630;2023-12-28T13:42:15;10.00;99.90
4820;DHT22;2424;49.696;6.630;2023-12-28T13:47:39;10.10;99.90
4820;DHT22;2424;49.696;6.630;2023-12-28T13:53:01;10.10;99.90
4820;DHT22;2424;49.696;6.630;2023-12-28T13:58:23;10.40;99.90
4820;DHT22;2424;49.696;6.630;2023-12-28T14:03:46;10.30;99.90
4820;DHT22;2424;49.696;6.630;2023-12-28T14:09:11;10.00;99.90
4820;DHT22;2424;49.696;6.630;2023-12-28T14:14:35;9.80;99.90
4820;DHT22;2424;49.696;6.630;2023-12-28T14:19:58;9.80;99.90
4820;DHT22;2424;49.696;6.630;2023-12-28T14:25:21;9.70;99.90
4820;DHT22;2424;49.696;6.630;2023-12-28T14:30:43;9.70;99.90
4820;DHT22;2424;49.696;6.630;2023-12-28T14:36:13;9.60;99.90
4820;DHT22;2424;49.696;6.630;2023-12-28T14:41:38;9.50;99.90
4820;DHT22;2424;49.696;6.630;2023-12-28T14:47:00;9.50;99.90
4820;DHT22;2424;49.696;6.630;2023-12-28T14:52:23;9.50;99.90
4820;DHT22;2424;49.696;6.630;2023-12-28T14:57:45;9.50;99.90
4820;DHT22;2424;49.696;6.630;2023-12-28T15:03:08;9.50;99.90
4820;DHT22;2424;49.696;6.630;2023-12-28T15:08:31;9.40;99.90
4820;DHT22;2424;49.696;6.630;2023-12-28T15:13:53;9.50;99.90
4820;DHT22;2424;49.696;6.630;2023-12-28T15:19:16;9.40;99.90
4820;DHT22;2424;49.696;6.630;2023-12-28T15:24:41;9.40;99.90
4820;DHT22;2424;49.696;6.630;2023-12-28T15:30:04;9.40;99.90
4820;DHT22;2424;49.696;6.630;2023-12-28T15:35:26;9.30;99.90
4820;DHT22;2424;49.696;6.630;2023-12-28T15:40:50;9.30;99.90
4820;DHT22;2424;49.696;6.630;2023-12-28T15:46:12;9.30;99.90
4820;DHT22;2424;49.696;6.630;2023-12-28T15:51:34;9.30;99.90
4820;DHT22;2424;49.696;6.630;2023-12-28T15:56:57;9.20;99.90
4820;DHT22;2424;49.696;6.630;2023-12-28T16:02:19;9.20;99.90
4820;DHT22;2424;49.696;6.630;2023-12-28T16:07:41;9.20;99.90
4820;DHT22;2424;49.696;6.630;2023-12-28T16:13:05;9.20;99.90
4820;DHT22;2424;49.696;6.630;2023-12-28T16:18:27;9.20;99.90
4820;DHT22;2424;49.696;6.630;2023-12-28T16:23:50;9.10;99.90
4820;DHT22;2424;49.696;6.630;2023-12-28T16:29:14;9.10;99.90
4820;DHT22;2424;49.696;6.630;2023-12-28T16:34:36;9.10;99.90
4820;DHT22;2424;49.696;6.630;2023-12-28T16:39:58;9.10;99.90
4820;DHT22;2424;49.696;6.630;2023-12-28T16:45:21;9.00;99.90
4820;DHT22;2424;49.696;6.630;2023-12-28T16:50:44;9.00;99.90
4820;DHT22;2424;49.696;6.630;2023-12-28T16:56:06;8.90;99.90
4820;DHT22;2424;49.696;6.630;2023-12-28T17:01:30;8.90;99.90
4820;DHT22;2424;49.696;6.630;2023-12-28T17:06:53;8.90;99.90
4820;DHT22;2424;49.696;6.630;2023-12-28T17:12:22;8.90;99.90
4820;DHT22;2424;49.696;6.630;2023-12-28T17:17:49;8.90;99.90
4820;DHT22;2424;49.696;6.630;2023-12-28T17:23:18;8.90;99.90
4820;DHT22;2424;49.696;6.630;2023-12-28T17:28:49;8.90;99.90
4820;DHT22;2424;49.696;6.630;2023-12-28T17:34:13;8.90;99.90
4820;DHT22;2424;49.696;6.630;2023-12-28T17:39:36;8.90;99.90
4820;DHT22;2424;49.696;6.630;2023-12-28T17:45:00;8.90;99.90
4820;DHT22;2424;49.696;6.630;2023-12-28T17:50:25;8.80;99.90
4820;DHT22;2424;49.696;6.630;2023-12-28T17:55:48;8.90;99.90
4820;DHT22;2424;49.696;6.630;2023-12-28T18:01:11;8.90;99.90
4820;DHT22;2424;49.696;6.630;2023-12-28T18:06:35;8.90;99.90
4820;DHT22;2424;49.696;6.630;2023-12-28T18:11:57;8.90;99.90
4820;DHT22;2424;49.696;6.630;2023-12-28T18:17:19;8.90;99.90
4820;DHT22;2424;49.696;6.630;2023-12-28T18:22:42;8.90;99.90
4820;DHT22;2424;49.696;6.630;2023-12-28T18:28:05;8.90;99.90
4820;DHT22;2424;49.696;6.630;2023-12-28T18:33:28;8.90;99.90
4820;DHT22;2424;49.696;6.630;2023-12-28T18:38:51;8.90;99.90
4820;DHT22;2424;49.696;6.630;2023-12-28T18:44:16;8.90;99.90
4820;DHT22;2424;49.696;6.630;2023-12-28T18:49:38;8.90;99.90
4820;DHT22;2424;49.696;6.630;2023-12-28T18:55:01;8.90;99.90
4820;DHT22;2424;49.696;6.630;2023-12-28T19:00:23;8.90;99.90
4820;DHT22;2424;49.696;6.630;2023-12-28T19:05:46;8.90;99.90
4820;DHT22;2424;49.696;6.630;2023-12-28T19:11:12;8.90;99.90
4820;DHT22;2424;49.696;6.630;2023-12-28T19:16:34;8.90;99.90
4820;DHT22;2424;49.696;6.630;2023-12-28T19:21:56;8.90;99.90
4820;DHT22;2424;49.696;6.630;2023-12-28T19:27:19;8.90;99.90
4820;DHT22;2424;49.696;6.630;2023-12-28T19:32:41;8.90;99.90
4820;DHT22;2424;49.696;6.630;2023-12-28T19:38:03;8.90;99.90
4820;DHT22;2424;49.696;6.630;2023-12-28T19:43:27;8.90;99.90
4820;DHT22;2424;49.696;6.630;2023-12-28T19:48:50;8.90;99.90
4820;DHT22;2424;49.696;6.630;2023-12-28T19:54:12;9.00;99.90
4820;DHT22;2424;49.696;6.630;2023-12-28T19:59:36;9.00;99.90
4820;DHT22;2424;49.696;6.630;2023-12-28T20:04:58;9.00;99.90
4820;DHT22;2424;49.696;6.630;2023-12-28T20:10:21;9.00;99.90
4820;DHT22;2424;49.696;6.630;2023-12-28T20:15:44;9.00;99.90
4820;DHT22;2424;49.696;6.630;2023-12-28T20:21:07;9.00;99.90
4820;DHT22;2424;49.696;6.630;2023-12-28T20:26:29;9.00;99.90
4820;DHT22;2424;49.696;6.630;2023-12-28T20:31:53;9.00;99.90
4820;DHT22;2424;49.696;6.630;2023-12-28T20:37:15;9.00;99.90
4820;DHT22;2424;49.696;6.630;2023-12-28T20:42:37;9.10;99.90
4820;DHT22;2424;49.696;6.630;2023-12-28T20:48:00;9.00;99.90
4820;DHT22;2424;49.696;6.630;2023-12-28T20:53:23;9.00;99.90
4820;DHT22;2424;49.696;6.630;2023-12-28T20:58:45;9.00;99.90
4820;DHT22;2424;49.696;6.630;2023-12-28T21:04:09;9.00;99.90
4820;DHT22;2424;49.696;6.630;2023-12-28T21:09:31;9.00;99.90
4820;DHT22;2424;49.696;6.630;2023-12-28T21:14:53;9.00;99.90
4820;DHT22;2424;49.696;6.630;2023-12-28T21:20:17;9.00;99.90
4820;DHT22;2424;49.696;6.630;2023-12-28T21:25:39;9.00;99.90
4820;DHT22;2424;49.696;6.630;2023-12-28T21:31:01;9.00;99.90
4820;DHT22;2424;49.696;6.630;2023-12-28T21:36:24;9.00;99.90
4820;DHT22;2424;49.696;6.630;2023-12-28T21:41:46;9.00;99.90
4820;DHT22;2424;49.696;6.630;2023-12-28T21:47:08;8.90;99.90
4820;DHT22;2424;49.696;6.630;2023-12-28T21:52:36;8.90;99.90
4820;DHT22;2424;49.696;6.630;2023-12-28T21:57:58;8.90;99.90
4820;DHT22;2424;49.696;6.630;2023-12-28T22:03:20;8.90;99.90
4820;DHT22;2424;49.696;6.630;2023-12-28T22:08:44;8.90;99.90
4820;DHT22;2424;49.696;6.630;2023-12-28T22:14:07;8.90;99.90
4820;DHT22;2424;49.696;6.630;2023-12-28T22:19:30;8.90;99.90
4820;DHT22;2424;49.696;6.630;2023-12-28T22:24:53;8.90;99.90
4820;DHT22;2424;49.696;6.630;2023-12-28T22:30:16;8.90;99.90
4820;DHT22;2424;49.696;6.630;2023-12-28T22:35:38;8.80;99.90
4820;DHT22;2424;49.696;6.630;2023-12-28T22:41:03;8.90;99.90
4820;DHT22;2424;49.696;6.630;2023-12-28T22:46:25;8.80;99.90
4820;DHT22;2424;49.696;6.630;2023-12-28T22:51:48;8.80;99.90
4820;DHT22;2424;49.696;6.630;2023-12-28T22:57:11;8.80;99.90
4820;DHT22;2424;49.696;6.630;2023-12-28T23:02:34;8.70;99.90
4820;DHT22;2424;49.696;6.630;2023-12-28T23:07:56;8.70;99.90
4820;DHT22;2424;49.696;6.630;2023-12-28T23:13:20;8.70;99.90
4820;DHT22;2424;49.696;6.630;2023-12-28T23:18:42;8.70;99.90
4820;DHT22;2424;49.696;6.630;2023-12-28T23:24:05;8.70;99.90
4820;DHT22;2424;49.696;6.630;2023-12-28T23:29:28;8.70;99.90
4820;DHT22;2424;49.696;6.630;2023-12-28T23:34:50;8.70;99.90
4820;DHT22;2424;49.696;6.630;2023-12-28T23:40:12;8.70;99.90
4820;DHT22;2424;49.696;6.630;2023-12-28T23:45:36;8.60;99.90
4820;DHT22;2424;49.696;6.630;2023-12-28T23:51:00;8.60;99.90
4820;DHT22;2424;49.696;6.630;2023-12-28T23:56:22;8.60;99.90
